sensor_id;sensor_type;location;lat;lon;timestamp;P1;durP1;ratioP1;P2;durP2;ratioP2
50483;SDS011;36409;52.168;20.878;2023-07-13T00:00:03;11.93;;;7.37;;
50483;SDS011;36409;52.168;20.878;2023-07-13T00:03:03;10.23;;;6.80;;
50483;SDS011;36409;52.168;20.878;2023-07-13T00:05:36;10.30;;;7.20;;
50483;SDS011;36409;52.168;20.878;2023-07-13T00:08:12;10.80;;;7.80;;
50483;SDS011;36409;52.168;20.878;2023-07-13T00:10:48;12.87;;;7.97;;
50483;SDS011;36409;52.168;20.878;2023-07-13T00:13:25;12.10;;;8.23;;
50483;SDS011;36409;52.168;20.878;2023-07-13T00:15:59;13.25;;;8.65;;
50483;SDS011;36409;52.168;20.878;2023-07-13T00:18:32;12.15;;;9.10;;
50483;SDS011;36409;52.168;20.878;2023-07-13T00:21:04;12.37;;;8.33;;
50483;SDS011;36409;52.168;20.878;2023-07-13T00:23:37;14.50;;;9.10;;
50483;SDS011;36409;52.168;20.878;2023-07-13T00:26:15;16.03;;;8.87;;
50483;SDS011;36409;52.168;20.878;2023-07-13T00:28:50;16.60;;;9.80;;
50483;SDS011;36409;52.168;20.878;2023-07-13T00:31:23;9.03;;;7.93;;
50483;SDS011;36409;52.168;20.878;2023-07-13T00:33:56;13.47;;;8.60;;
50483;SDS011;36409;52.168;20.878;2023-07-13T00:36:29;11.08;;;8.35;;
50483;SDS011;36409;52.168;20.878;2023-07-13T00:39:02;12.20;;;8.33;;
50483;SDS011;36409;52.168;20.878;2023-07-13T00:41:35;14.03;;;9.00;;
50483;SDS011;36409;52.168;20.878;2023-07-13T00:44:14;12.60;;;8.83;;
50483;SDS011;36409;52.168;20.878;2023-07-13T00:46:52;12.77;;;9.07;;
50483;SDS011;36409;52.168;20.878;2023-07-13T00:49:32;12.73;;;8.83;;
50483;SDS011;36409;52.168;20.878;2023-07-13T00:52:07;12.87;;;9.03;;
50483;SDS011;36409;52.168;20.878;2023-07-13T00:54:49;11.87;;;9.23;;
50483;SDS011;36409;52.168;20.878;2023-07-13T00:57:22;13.97;;;8.73;;
50483;SDS011;36409;52.168;20.878;2023-07-13T00:59:55;13.87;;;9.33;;
50483;SDS011;36409;52.168;20.878;2023-07-13T01:02:37;12.70;;;9.43;;
50483;SDS011;36409;52.168;20.878;2023-07-13T01:05:21;10.87;;;8.67;;
50483;SDS011;36409;52.168;20.878;2023-07-13T01:07:56;11.67;;;9.63;;
50483;SDS011;36409;52.168;20.878;2023-07-13T01:10:29;10.87;;;8.10;;
50483;SDS011;36409;52.168;20.878;2023-07-13T01:13:09;12.53;;;9.30;;
50483;SDS011;36409;52.168;20.878;2023-07-13T01:15:46;13.33;;;9.10;;
50483;SDS011;36409;52.168;20.878;2023-07-13T01:18:22;14.40;;;9.03;;
50483;SDS011;36409;52.168;20.878;2023-07-13T01:20:58;13.95;;;8.45;;
50483;SDS011;36409;52.168;20.878;2023-07-13T01:23:32;11.77;;;8.93;;
50483;SDS011;36409;52.168;20.878;2023-07-13T01:26:06;12.67;;;8.70;;
50483;SDS011;36409;52.168;20.878;2023-07-13T01:28:39;14.33;;;8.77;;
50483;SDS011;36409;52.168;20.878;2023-07-13T01:31:17;11.43;;;7.50;;
50483;SDS011;36409;52.168;20.878;2023-07-13T01:33:53;11.77;;;8.37;;
50483;SDS011;36409;52.168;20.878;2023-07-13T01:36:29;12.00;;;8.23;;
50483;SDS011;36409;52.168;20.878;2023-07-13T01:41:36;12.03;;;8.40;;
50483;SDS011;36409;52.168;20.878;2023-07-13T01:44:09;18.37;;;9.85;;
50483;SDS011;36409;52.168;20.878;2023-07-13T01:46:43;15.90;;;8.40;;
50483;SDS011;36409;52.168;20.878;2023-07-13T01:49:20;9.83;;;7.30;;
50483;SDS011;36409;52.168;20.878;2023-07-13T01:51:54;12.25;;;9.05;;
50483;SDS011;36409;52.168;20.878;2023-07-13T01:54:36;12.27;;;8.90;;
50483;SDS011;36409;52.168;20.878;2023-07-13T01:57:08;10.60;;;7.57;;
50483;SDS011;36409;52.168;20.878;2023-07-13T01:59:42;11.83;;;9.10;;
50483;SDS011;36409;52.168;20.878;2023-07-13T02:02:21;11.50;;;9.03;;
50483;SDS011;36409;52.168;20.878;2023-07-13T02:04:54;11.93;;;8.53;;
50483;SDS011;36409;52.168;20.878;2023-07-13T02:07:29;12.57;;;8.97;;
50483;SDS011;36409;52.168;20.878;2023-07-13T02:10:01;14.23;;;9.10;;
50483;SDS011;36409;52.168;20.878;2023-07-13T02:12:37;15.27;;;10.23;;
50483;SDS011;36409;52.168;20.878;2023-07-13T02:15:21;17.33;;;9.50;;
50483;SDS011;36409;52.168;20.878;2023-07-13T02:17:54;11.67;;;7.87;;
50483;SDS011;36409;52.168;20.878;2023-07-13T02:20:28;14.63;;;9.23;;
50483;SDS011;36409;52.168;20.878;2023-07-13T02:23:00;14.40;;;10.17;;
50483;SDS011;36409;52.168;20.878;2023-07-13T02:25:36;12.37;;;9.80;;
50483;SDS011;36409;52.168;20.878;2023-07-13T02:28:10;13.63;;;10.70;;
50483;SDS011;36409;52.168;20.878;2023-07-13T02:30:42;14.60;;;10.75;;
50483;SDS011;36409;52.168;20.878;2023-07-13T02:33:21;13.97;;;10.53;;
50483;SDS011;36409;52.168;20.878;2023-07-13T02:35:53;20.10;;;9.90;;
50483;SDS011;36409;52.168;20.878;2023-07-13T02:38:28;11.47;;;8.93;;
50483;SDS011;36409;52.168;20.878;2023-07-13T02:41:07;12.90;;;8.73;;
50483;SDS011;36409;52.168;20.878;2023-07-13T02:43:41;12.87;;;8.63;;
50483;SDS011;36409;52.168;20.878;2023-07-13T02:46:21;13.80;;;8.97;;
50483;SDS011;36409;52.168;20.878;2023-07-13T02:48:59;11.17;;;8.47;;
50483;SDS011;36409;52.168;20.878;2023-07-13T02:51:31;14.30;;;9.50;;
50483;SDS011;36409;52.168;20.878;2023-07-13T02:54:04;11.07;;;8.70;;
50483;SDS011;36409;52.168;20.878;2023-07-13T02:56:37;11.78;;;8.00;;
50483;SDS011;36409;52.168;20.878;2023-07-13T02:59:12;14.47;;;8.47;;
50483;SDS011;36409;52.168;20.878;2023-07-13T03:01:45;11.43;;;8.50;;
50483;SDS011;36409;52.168;20.878;2023-07-13T03:04:18;12.93;;;9.58;;
50483;SDS011;36409;52.168;20.878;2023-07-13T03:06:51;14.53;;;9.53;;
50483;SDS011;36409;52.168;20.878;2023-07-13T03:09:33;15.17;;;9.10;;
50483;SDS011;36409;52.168;20.878;2023-07-13T03:12:09;10.57;;;8.80;;
50483;SDS011;36409;52.168;20.878;2023-07-13T03:14:45;10.73;;;7.77;;
50483;SDS011;36409;52.168;20.878;2023-07-13T03:17:18;12.63;;;7.90;;
50483;SDS011;36409;52.168;20.878;2023-07-13T03:19:51;10.88;;;7.80;;
50483;SDS011;36409;52.168;20.878;2023-07-13T03:22:24;11.38;;;7.87;;
50483;SDS011;36409;52.168;20.878;2023-07-13T03:24:57;10.87;;;7.63;;
50483;SDS011;36409;52.168;20.878;2023-07-13T03:27:30;11.73;;;8.17;;
50483;SDS011;36409;52.168;20.878;2023-07-13T03:30:05;11.73;;;8.13;;
50483;SDS011;36409;52.168;20.878;2023-07-13T03:32:39;12.33;;;8.27;;
50483;SDS011;36409;52.168;20.878;2023-07-13T03:35:11;11.30;;;7.70;;
50483;SDS011;36409;52.168;20.878;2023-07-13T03:37:44;10.83;;;7.90;;
50483;SDS011;36409;52.168;20.878;2023-07-13T03:40:20;11.73;;;8.10;;
50483;SDS011;36409;52.168;20.878;2023-07-13T03:42:53;9.50;;;7.58;;
50483;SDS011;36409;52.168;20.878;2023-07-13T03:45:28;14.53;;;8.20;;
50483;SDS011;36409;52.168;20.878;2023-07-13T03:48:01;11.37;;;8.30;;
50483;SDS011;36409;52.168;20.878;2023-07-13T03:53:05;9.70;;;7.10;;
50483;SDS011;36409;52.168;20.878;2023-07-13T03:55:38;10.60;;;7.30;;
50483;SDS011;36409;52.168;20.878;2023-07-13T03:58:31;10.90;;;7.43;;
50483;SDS011;36409;52.168;20.878;2023-07-13T04:01:13;12.53;;;8.00;;
50483;SDS011;36409;52.168;20.878;2023-07-13T04:03:48;10.93;;;8.50;;
50483;SDS011;36409;52.168;20.878;2023-07-13T04:06:28;11.47;;;8.43;;
50483;SDS011;36409;52.168;20.878;2023-07-13T04:09:02;14.17;;;9.27;;
50483;SDS011;36409;52.168;20.878;2023-07-13T04:11:35;11.30;;;8.87;;
50483;SDS011;36409;52.168;20.878;2023-07-13T04:14:08;11.87;;;8.80;;
50483;SDS011;36409;52.168;20.878;2023-07-13T04:16:40;16.30;;;9.47;;
50483;SDS011;36409;52.168;20.878;2023-07-13T04:19:15;11.57;;;8.80;;
50483;SDS011;36409;52.168;20.878;2023-07-13T04:24:23;12.13;;;9.17;;
50483;SDS011;36409;52.168;20.878;2023-07-13T04:26:55;14.80;;;9.70;;
50483;SDS011;36409;52.168;20.878;2023-07-13T04:29:29;16.00;;;11.60;;
50483;SDS011;36409;52.168;20.878;2023-07-13T04:32:01;14.73;;;10.13;;
50483;SDS011;36409;52.168;20.878;2023-07-13T04:34:39;14.73;;;10.17;;
50483;SDS011;36409;52.168;20.878;2023-07-13T04:37:11;15.30;;;10.17;;
50483;SDS011;36409;52.168;20.878;2023-07-13T04:39:46;14.73;;;10.67;;
50483;SDS011;36409;52.168;20.878;2023-07-13T04:42:19;12.90;;;10.43;;
50483;SDS011;36409;52.168;20.878;2023-07-13T04:44:52;14.98;;;10.72;;
50483;SDS011;36409;52.168;20.878;2023-07-13T04:47:25;16.37;;;10.03;;
50483;SDS011;36409;52.168;20.878;2023-07-13T04:50:00;12.43;;;9.87;;
50483;SDS011;36409;52.168;20.878;2023-07-13T04:52:32;12.43;;;9.40;;
50483;SDS011;36409;52.168;20.878;2023-07-13T04:55:06;16.10;;;9.80;;
50483;SDS011;36409;52.168;20.878;2023-07-13T04:57:40;14.03;;;9.97;;
50483;SDS011;36409;52.168;20.878;2023-07-13T05:00:15;16.53;;;10.80;;
50483;SDS011;36409;52.168;20.878;2023-07-13T05:02:49;12.00;;;9.87;;
50483;SDS011;36409;52.168;20.878;2023-07-13T05:05:22;14.83;;;10.67;;
50483;SDS011;36409;52.168;20.878;2023-07-13T05:07:55;18.93;;;11.03;;
50483;SDS011;36409;52.168;20.878;2023-07-13T05:10:36;15.83;;;10.57;;
50483;SDS011;36409;52.168;20.878;2023-07-13T05:13:09;16.23;;;11.20;;
50483;SDS011;36409;52.168;20.878;2023-07-13T05:15:42;16.07;;;9.37;;
50483;SDS011;36409;52.168;20.878;2023-07-13T05:18:15;14.97;;;10.83;;
50483;SDS011;36409;52.168;20.878;2023-07-13T05:20:48;13.63;;;10.43;;
50483;SDS011;36409;52.168;20.878;2023-07-13T05:23:30;16.50;;;10.63;;
50483;SDS011;36409;52.168;20.878;2023-07-13T05:26:06;13.60;;;9.83;;
50483;SDS011;36409;52.168;20.878;2023-07-13T05:28:40;14.43;;;10.77;;
50483;SDS011;36409;52.168;20.878;2023-07-13T05:31:13;17.43;;;10.60;;
50483;SDS011;36409;52.168;20.878;2023-07-13T05:33:46;13.73;;;9.77;;
50483;SDS011;36409;52.168;20.878;2023-07-13T05:36:18;14.77;;;9.93;;
50483;SDS011;36409;52.168;20.878;2023-07-13T05:38:51;12.97;;;9.63;;
50483;SDS011;36409;52.168;20.878;2023-07-13T05:41:24;15.28;;;9.70;;
50483;SDS011;36409;52.168;20.878;2023-07-13T05:44:00;14.10;;;9.50;;
50483;SDS011;36409;52.168;20.878;2023-07-13T05:46:32;17.03;;;10.13;;
50483;SDS011;36409;52.168;20.878;2023-07-13T05:49:06;14.37;;;10.43;;
50483;SDS011;36409;52.168;20.878;2023-07-13T05:51:38;15.40;;;9.70;;
50483;SDS011;36409;52.168;20.878;2023-07-13T05:54:11;14.83;;;10.57;;
50483;SDS011;36409;52.168;20.878;2023-07-13T05:56:44;14.23;;;12.00;;
50483;SDS011;36409;52.168;20.878;2023-07-13T05:59:18;15.95;;;10.38;;
50483;SDS011;36409;52.168;20.878;2023-07-13T06:01:51;18.23;;;10.97;;
50483;SDS011;36409;52.168;20.878;2023-07-13T06:04:27;17.63;;;11.40;;
50483;SDS011;36409;52.168;20.878;2023-07-13T06:07:04;19.37;;;12.30;;
50483;SDS011;36409;52.168;20.878;2023-07-13T06:09:39;19.77;;;11.90;;
50483;SDS011;36409;52.168;20.878;2023-07-13T06:12:12;14.85;;;11.10;;
50483;SDS011;36409;52.168;20.878;2023-07-13T06:14:44;16.40;;;10.18;;
50483;SDS011;36409;52.168;20.878;2023-07-13T06:17:17;14.80;;;10.55;;
50483;SDS011;36409;52.168;20.878;2023-07-13T06:19:50;14.93;;;11.87;;
50483;SDS011;36409;52.168;20.878;2023-07-13T06:22:22;14.73;;;9.97;;
50483;SDS011;36409;52.168;20.878;2023-07-13T06:24:55;14.83;;;9.87;;
50483;SDS011;36409;52.168;20.878;2023-07-13T06:27:33;18.90;;;10.73;;
50483;SDS011;36409;52.168;20.878;2023-07-13T06:30:07;15.23;;;10.30;;
50483;SDS011;36409;52.168;20.878;2023-07-13T06:32:41;11.80;;;9.17;;
50483;SDS011;36409;52.168;20.878;2023-07-13T06:35:16;13.30;;;8.57;;
50483;SDS011;36409;52.168;20.878;2023-07-13T06:37:48;10.95;;;7.35;;
50483;SDS011;36409;52.168;20.878;2023-07-13T06:40:21;11.22;;;7.72;;
50483;SDS011;36409;52.168;20.878;2023-07-13T06:42:54;14.47;;;8.60;;
50483;SDS011;36409;52.168;20.878;2023-07-13T06:45:29;14.87;;;7.60;;
50483;SDS011;36409;52.168;20.878;2023-07-13T06:48:03;11.03;;;7.27;;
50483;SDS011;36409;52.168;20.878;2023-07-13T06:50:37;14.00;;;8.80;;
50483;SDS011;36409;52.168;20.878;2023-07-13T06:53:13;12.10;;;7.90;;
50483;SDS011;36409;52.168;20.878;2023-07-13T06:55:46;12.98;;;7.83;;
50483;SDS011;36409;52.168;20.878;2023-07-13T06:58:19;10.00;;;7.33;;
50483;SDS011;36409;52.168;20.878;2023-07-13T07:00:52;11.30;;;6.37;;
50483;SDS011;36409;52.168;20.878;2023-07-13T07:03:26;11.70;;;6.20;;
50483;SDS011;36409;52.168;20.878;2023-07-13T07:06:01;9.08;;;5.28;;
50483;SDS011;36409;52.168;20.878;2023-07-13T07:08:43;7.63;;;4.90;;
50483;SDS011;36409;52.168;20.878;2023-07-13T07:11:18;11.53;;;4.13;;
50483;SDS011;36409;52.168;20.878;2023-07-13T07:13:53;8.67;;;4.60;;
50483;SDS011;36409;52.168;20.878;2023-07-13T07:16:27;5.70;;;3.30;;
50483;SDS011;36409;52.168;20.878;2023-07-13T07:18:59;5.47;;;3.40;;
50483;SDS011;36409;52.168;20.878;2023-07-13T07:21:32;9.67;;;3.90;;
50483;SDS011;36409;52.168;20.878;2023-07-13T07:24:05;9.80;;;4.10;;
50483;SDS011;36409;52.168;20.878;2023-07-13T07:26:38;6.08;;;3.12;;
50483;SDS011;36409;52.168;20.878;2023-07-13T07:29:13;7.33;;;4.30;;
50483;SDS011;36409;52.168;20.878;2023-07-13T07:31:48;6.40;;;4.10;;
50483;SDS011;36409;52.168;20.878;2023-07-13T07:34:36;6.77;;;4.07;;
50483;SDS011;36409;52.168;20.878;2023-07-13T07:37:11;7.97;;;4.67;;
50483;SDS011;36409;52.168;20.878;2023-07-13T07:39:47;9.40;;;4.80;;
50483;SDS011;36409;52.168;20.878;2023-07-13T07:42:40;8.80;;;4.50;;
50483;SDS011;36409;52.168;20.878;2023-07-13T07:45:13;11.95;;;5.00;;
50483;SDS011;36409;52.168;20.878;2023-07-13T07:47:46;9.13;;;4.80;;
50483;SDS011;36409;52.168;20.878;2023-07-13T07:50:25;6.53;;;3.80;;
50483;SDS011;36409;52.168;20.878;2023-07-13T07:52:58;9.73;;;4.00;;
50483;SDS011;36409;52.168;20.878;2023-07-13T07:58:06;10.33;;;3.33;;
50483;SDS011;36409;52.168;20.878;2023-07-13T08:01:03;9.88;;;4.40;;
50483;SDS011;36409;52.168;20.878;2023-07-13T08:03:39;9.50;;;4.93;;
50483;SDS011;36409;52.168;20.878;2023-07-13T08:06:15;7.03;;;4.23;;
50483;SDS011;36409;52.168;20.878;2023-07-13T08:08:54;5.47;;;3.67;;
50483;SDS011;36409;52.168;20.878;2023-07-13T08:11:28;6.37;;;3.60;;
50483;SDS011;36409;52.168;20.878;2023-07-13T08:14:04;6.20;;;3.60;;
50483;SDS011;36409;52.168;20.878;2023-07-13T08:16:36;5.67;;;3.70;;
50483;SDS011;36409;52.168;20.878;2023-07-13T08:21:41;8.13;;;4.40;;
50483;SDS011;36409;52.168;20.878;2023-07-13T08:24:14;9.60;;;4.30;;
50483;SDS011;36409;52.168;20.878;2023-07-13T08:26:48;6.67;;;4.40;;
50483;SDS011;36409;52.168;20.878;2023-07-13T08:29:21;7.50;;;4.90;;
50483;SDS011;36409;52.168;20.878;2023-07-13T08:31:56;7.23;;;5.00;;
50483;SDS011;36409;52.168;20.878;2023-07-13T08:34:43;7.83;;;4.93;;
50483;SDS011;36409;52.168;20.878;2023-07-13T08:37:16;7.72;;;5.50;;
50483;SDS011;36409;52.168;20.878;2023-07-13T08:39:50;7.47;;;5.53;;
50483;SDS011;36409;52.168;20.878;2023-07-13T08:42:26;7.05;;;5.08;;
50483;SDS011;36409;52.168;20.878;2023-07-13T08:45:13;8.43;;;6.03;;
50483;SDS011;36409;52.168;20.878;2023-07-13T08:47:53;8.60;;;5.33;;
50483;SDS011;36409;52.168;20.878;2023-07-13T08:50:30;9.53;;;5.70;;
50483;SDS011;36409;52.168;20.878;2023-07-13T08:53:28;9.23;;;5.90;;
50483;SDS011;36409;52.168;20.878;2023-07-13T08:56:17;9.33;;;6.00;;
50483;SDS011;36409;52.168;20.878;2023-07-13T08:58:53;9.50;;;6.10;;
50483;SDS011;36409;52.168;20.878;2023-07-13T09:01:33;8.50;;;6.07;;
50483;SDS011;36409;52.168;20.878;2023-07-13T09:04:18;8.03;;;6.00;;
50483;SDS011;36409;52.168;20.878;2023-07-13T09:06:55;8.83;;;6.10;;
50483;SDS011;36409;52.168;20.878;2023-07-13T09:09:44;11.00;;;5.67;;
50483;SDS011;36409;52.168;20.878;2023-07-13T09:12:27;6.53;;;5.13;;
50483;SDS011;36409;52.168;20.878;2023-07-13T09:15:14;8.33;;;6.17;;
50483;SDS011;36409;52.168;20.878;2023-07-13T09:17:55;8.40;;;5.70;;
50483;SDS011;36409;52.168;20.878;2023-07-13T09:20:34;7.60;;;5.30;;
50483;SDS011;36409;52.168;20.878;2023-07-13T09:23:14;7.40;;;5.43;;
50483;SDS011;36409;52.168;20.878;2023-07-13T09:25:51;9.10;;;6.10;;
50483;SDS011;36409;52.168;20.878;2023-07-13T09:28:32;9.40;;;5.77;;
50483;SDS011;36409;52.168;20.878;2023-07-13T09:31:11;8.67;;;5.63;;
50483;SDS011;36409;52.168;20.878;2023-07-13T09:33:49;8.93;;;6.00;;
50483;SDS011;36409;52.168;20.878;2023-07-13T09:36:23;6.90;;;5.50;;
50483;SDS011;36409;52.168;20.878;2023-07-13T09:39:01;7.63;;;5.70;;
50483;SDS011;36409;52.168;20.878;2023-07-13T09:41:41;8.03;;;5.73;;
50483;SDS011;36409;52.168;20.878;2023-07-13T09:44:27;8.40;;;5.70;;
50483;SDS011;36409;52.168;20.878;2023-07-13T09:47:13;7.57;;;5.33;;
50483;SDS011;36409;52.168;20.878;2023-07-13T09:49:49;7.27;;;5.20;;
50483;SDS011;36409;52.168;20.878;2023-07-13T09:52:40;7.65;;;5.28;;
50483;SDS011;36409;52.168;20.878;2023-07-13T09:55:26;11.17;;;5.50;;
50483;SDS011;36409;52.168;20.878;2023-07-13T09:58:04;10.63;;;5.53;;
50483;SDS011;36409;52.168;20.878;2023-07-13T10:00:42;8.33;;;5.70;;
50483;SDS011;36409;52.168;20.878;2023-07-13T10:03:26;9.30;;;5.30;;
50483;SDS011;36409;52.168;20.878;2023-07-13T10:06:11;6.53;;;4.23;;
50483;SDS011;36409;52.168;20.878;2023-07-13T10:08:46;8.47;;;3.53;;
50483;SDS011;36409;52.168;20.878;2023-07-13T10:11:21;9.53;;;3.50;;
50483;SDS011;36409;52.168;20.878;2023-07-13T10:13:57;8.63;;;3.70;;
50483;SDS011;36409;52.168;20.878;2023-07-13T10:16:33;6.53;;;3.90;;
50483;SDS011;36409;52.168;20.878;2023-07-13T10:19:10;6.70;;;4.10;;
50483;SDS011;36409;52.168;20.878;2023-07-13T10:21:50;13.70;;;3.73;;
50483;SDS011;36409;52.168;20.878;2023-07-13T10:24:37;5.67;;;3.53;;
50483;SDS011;36409;52.168;20.878;2023-07-13T10:27:12;11.07;;;4.00;;
50483;SDS011;36409;52.168;20.878;2023-07-13T10:29:53;7.37;;;3.33;;
50483;SDS011;36409;52.168;20.878;2023-07-13T10:32:32;12.68;;;3.62;;
50483;SDS011;36409;52.168;20.878;2023-07-13T10:35:05;13.03;;;4.40;;
50483;SDS011;36409;52.168;20.878;2023-07-13T10:37:44;12.50;;;4.10;;
50483;SDS011;36409;52.168;20.878;2023-07-13T10:40:24;12.33;;;5.07;;
50483;SDS011;36409;52.168;20.878;2023-07-13T10:43:00;11.50;;;4.27;;
50483;SDS011;36409;52.168;20.878;2023-07-13T10:45:37;18.43;;;6.17;;
50483;SDS011;36409;52.168;20.878;2023-07-13T10:50:45;17.23;;;5.30;;
50483;SDS011;36409;52.168;20.878;2023-07-13T10:53:27;10.27;;;4.60;;
50483;SDS011;36409;52.168;20.878;2023-07-13T10:56:02;12.60;;;4.60;;
50483;SDS011;36409;52.168;20.878;2023-07-13T10:58:38;9.57;;;4.17;;
50483;SDS011;36409;52.168;20.878;2023-07-13T11:01:12;7.90;;;4.30;;
50483;SDS011;36409;52.168;20.878;2023-07-13T11:03:50;8.17;;;4.30;;
50483;SDS011;36409;52.168;20.878;2023-07-13T11:06:33;9.97;;;5.13;;
50483;SDS011;36409;52.168;20.878;2023-07-13T11:09:31;7.10;;;4.43;;
50483;SDS011;36409;52.168;20.878;2023-07-13T11:15:28;11.03;;;4.50;;
50483;SDS011;36409;52.168;20.878;2023-07-13T11:18:04;8.20;;;5.07;;
50483;SDS011;36409;52.168;20.878;2023-07-13T11:20:50;9.57;;;4.77;;
50483;SDS011;36409;52.168;20.878;2023-07-13T11:24:03;9.83;;;4.30;;
50483;SDS011;36409;52.168;20.878;2023-07-13T11:26:51;9.23;;;4.70;;
50483;SDS011;36409;52.168;20.878;2023-07-13T11:29:27;7.53;;;4.57;;
50483;SDS011;36409;52.168;20.878;2023-07-13T11:32:23;9.23;;;4.43;;
50483;SDS011;36409;52.168;20.878;2023-07-13T11:35:00;12.27;;;5.30;;
50483;SDS011;36409;52.168;20.878;2023-07-13T11:37:33;10.03;;;4.37;;
50483;SDS011;36409;52.168;20.878;2023-07-13T11:40:11;6.67;;;3.67;;
50483;SDS011;36409;52.168;20.878;2023-07-13T11:42:48;7.87;;;3.80;;
50483;SDS011;36409;52.168;20.878;2023-07-13T11:45:21;8.07;;;3.73;;
50483;SDS011;36409;52.168;20.878;2023-07-13T11:48:24;5.97;;;4.00;;
50483;SDS011;36409;52.168;20.878;2023-07-13T11:51:00;7.57;;;4.00;;
50483;SDS011;36409;52.168;20.878;2023-07-13T11:53:36;7.33;;;4.17;;
50483;SDS011;36409;52.168;20.878;2023-07-13T11:56:15;7.57;;;4.10;;
50483;SDS011;36409;52.168;20.878;2023-07-13T11:58:50;7.35;;;3.90;;
50483;SDS011;36409;52.168;20.878;2023-07-13T12:01:27;5.57;;;3.73;;
50483;SDS011;36409;52.168;20.878;2023-07-13T12:04:03;10.13;;;4.63;;
50483;SDS011;36409;52.168;20.878;2023-07-13T12:06:38;7.53;;;3.90;;
50483;SDS011;36409;52.168;20.878;2023-07-13T12:09:13;6.43;;;3.60;;
50483;SDS011;36409;52.168;20.878;2023-07-13T12:14:17;9.73;;;4.43;;
50483;SDS011;36409;52.168;20.878;2023-07-13T12:16:53;8.53;;;4.30;;
50483;SDS011;36409;52.168;20.878;2023-07-13T12:19:31;10.30;;;4.10;;
50483;SDS011;36409;52.168;20.878;2023-07-13T12:22:04;9.87;;;4.13;;
50483;SDS011;36409;52.168;20.878;2023-07-13T12:24:42;5.43;;;3.67;;
50483;SDS011;36409;52.168;20.878;2023-07-13T12:29:51;7.77;;;4.20;;
50483;SDS011;36409;52.168;20.878;2023-07-13T12:32:34;10.40;;;3.93;;
50483;SDS011;36409;52.168;20.878;2023-07-13T12:35:13;6.80;;;3.95;;
50483;SDS011;36409;52.168;20.878;2023-07-13T12:37:51;10.17;;;4.70;;
50483;SDS011;36409;52.168;20.878;2023-07-13T12:40:26;6.80;;;4.17;;
50483;SDS011;36409;52.168;20.878;2023-07-13T12:43:09;8.73;;;4.70;;
50483;SDS011;36409;52.168;20.878;2023-07-13T12:45:55;7.70;;;4.83;;
50483;SDS011;36409;52.168;20.878;2023-07-13T12:48:38;8.13;;;4.40;;
50483;SDS011;36409;52.168;20.878;2023-07-13T12:51:23;7.43;;;4.60;;
50483;SDS011;36409;52.168;20.878;2023-07-13T12:53:58;12.30;;;4.33;;
50483;SDS011;36409;52.168;20.878;2023-07-13T12:56:46;10.10;;;4.37;;
50483;SDS011;36409;52.168;20.878;2023-07-13T12:59:25;6.10;;;4.50;;
50483;SDS011;36409;52.168;20.878;2023-07-13T13:02:05;6.43;;;4.27;;
50483;SDS011;36409;52.168;20.878;2023-07-13T13:05:00;6.73;;;4.63;;
50483;SDS011;36409;52.168;20.878;2023-07-13T13:07:34;8.73;;;5.20;;
50483;SDS011;36409;52.168;20.878;2023-07-13T13:10:12;10.40;;;4.83;;
50483;SDS011;36409;52.168;20.878;2023-07-13T13:12:45;8.37;;;4.47;;
50483;SDS011;36409;52.168;20.878;2023-07-13T13:17:51;11.70;;;4.67;;
50483;SDS011;36409;52.168;20.878;2023-07-13T13:20:26;12.13;;;4.90;;
50483;SDS011;36409;52.168;20.878;2023-07-13T13:22:59;8.17;;;4.70;;
50483;SDS011;36409;52.168;20.878;2023-07-13T13:28:04;10.97;;;4.77;;
50483;SDS011;36409;52.168;20.878;2023-07-13T13:30:43;7.83;;;4.30;;
50483;SDS011;36409;52.168;20.878;2023-07-13T13:33:18;8.73;;;4.53;;
50483;SDS011;36409;52.168;20.878;2023-07-13T13:35:51;10.10;;;4.80;;
50483;SDS011;36409;52.168;20.878;2023-07-13T13:38:25;11.08;;;5.25;;
50483;SDS011;36409;52.168;20.878;2023-07-13T13:40:59;7.73;;;4.13;;
50483;SDS011;36409;52.168;20.878;2023-07-13T13:43:32;7.75;;;4.58;;
50483;SDS011;36409;52.168;20.878;2023-07-13T13:46:08;9.60;;;5.20;;
50483;SDS011;36409;52.168;20.878;2023-07-13T13:48:48;7.92;;;4.15;;
50483;SDS011;36409;52.168;20.878;2023-07-13T13:51:21;10.77;;;4.40;;
50483;SDS011;36409;52.168;20.878;2023-07-13T13:53:55;19.63;;;5.10;;
50483;SDS011;36409;52.168;20.878;2023-07-13T13:56:28;10.50;;;5.10;;
50483;SDS011;36409;52.168;20.878;2023-07-13T13:59:02;10.37;;;4.93;;
50483;SDS011;36409;52.168;20.878;2023-07-13T14:01:38;10.13;;;4.78;;
50483;SDS011;36409;52.168;20.878;2023-07-13T14:04:13;7.80;;;4.73;;
50483;SDS011;36409;52.168;20.878;2023-07-13T14:06:48;9.00;;;4.67;;
50483;SDS011;36409;52.168;20.878;2023-07-13T14:09:21;8.40;;;4.92;;
50483;SDS011;36409;52.168;20.878;2023-07-13T14:11:54;8.10;;;4.40;;
50483;SDS011;36409;52.168;20.878;2023-07-13T14:14:29;10.77;;;4.50;;
50483;SDS011;36409;52.168;20.878;2023-07-13T14:19:36;8.00;;;4.97;;
50483;SDS011;36409;52.168;20.878;2023-07-13T14:22:10;6.13;;;4.37;;
50483;SDS011;36409;52.168;20.878;2023-07-13T14:27:14;5.83;;;4.10;;
50483;SDS011;36409;52.168;20.878;2023-07-13T14:29:47;6.83;;;4.73;;
50483;SDS011;36409;52.168;20.878;2023-07-13T14:32:19;7.17;;;4.67;;
50483;SDS011;36409;52.168;20.878;2023-07-13T14:34:51;7.87;;;5.27;;
50483;SDS011;36409;52.168;20.878;2023-07-13T14:37:26;13.30;;;5.00;;
50483;SDS011;36409;52.168;20.878;2023-07-13T14:39:59;8.80;;;5.27;;
50483;SDS011;36409;52.168;20.878;2023-07-13T14:42:33;9.87;;;6.50;;
50483;SDS011;36409;52.168;20.878;2023-07-13T14:45:11;8.23;;;5.53;;
50483;SDS011;36409;52.168;20.878;2023-07-13T14:47:48;10.53;;;6.47;;
50483;SDS011;36409;52.168;20.878;2023-07-13T14:50:24;8.20;;;6.10;;
50483;SDS011;36409;52.168;20.878;2023-07-13T14:53:04;16.37;;;6.47;;
50483;SDS011;36409;52.168;20.878;2023-07-13T14:55:39;11.17;;;5.67;;
50483;SDS011;36409;52.168;20.878;2023-07-13T14:58:13;9.97;;;6.40;;
50483;SDS011;36409;52.168;20.878;2023-07-13T15:00:45;10.63;;;7.00;;
50483;SDS011;36409;52.168;20.878;2023-07-13T15:03:20;10.93;;;6.73;;
50483;SDS011;36409;52.168;20.878;2023-07-13T15:05:55;15.70;;;7.00;;
50483;SDS011;36409;52.168;20.878;2023-07-13T15:08:29;10.87;;;7.00;;
50483;SDS011;36409;52.168;20.878;2023-07-13T15:11:02;11.37;;;7.00;;
50483;SDS011;36409;52.168;20.878;2023-07-13T15:13:34;10.93;;;7.00;;
50483;SDS011;36409;52.168;20.878;2023-07-13T15:16:13;10.88;;;6.40;;
50483;SDS011;36409;52.168;20.878;2023-07-13T15:18:49;11.03;;;7.00;;
50483;SDS011;36409;52.168;20.878;2023-07-13T15:21:33;10.57;;;6.83;;
50483;SDS011;36409;52.168;20.878;2023-07-13T15:24:07;9.90;;;6.50;;
50483;SDS011;36409;52.168;20.878;2023-07-13T15:26:42;11.00;;;7.03;;
50483;SDS011;36409;52.168;20.878;2023-07-13T15:29:18;12.83;;;6.63;;
50483;SDS011;36409;52.168;20.878;2023-07-13T15:34:27;9.00;;;6.10;;
50483;SDS011;36409;52.168;20.878;2023-07-13T15:37:07;12.45;;;6.65;;
50483;SDS011;36409;52.168;20.878;2023-07-13T15:39:47;11.90;;;7.17;;
50483;SDS011;36409;52.168;20.878;2023-07-13T15:42:20;11.87;;;7.20;;
50483;SDS011;36409;52.168;20.878;2023-07-13T15:47:26;14.83;;;6.40;;
50483;SDS011;36409;52.168;20.878;2023-07-13T15:50:00;8.67;;;6.50;;
50483;SDS011;36409;52.168;20.878;2023-07-13T15:52:33;13.90;;;6.57;;
50483;SDS011;36409;52.168;20.878;2023-07-13T15:55:07;9.95;;;6.35;;
50483;SDS011;36409;52.168;20.878;2023-07-13T15:57:44;10.13;;;7.17;;